createdAt,value
2022-12-17T00:00:17.064Z,-5.23
2022-12-17T00:01:16.723Z,-5.27
2022-12-17T00:02:16.308Z,-5.33
2022-12-17T00:03:17.305Z,-5.40
2022-12-17T00:04:17.260Z,-5.37
2022-12-17T00:05:17.002Z,-5.28
2022-12-17T00:06:16.498Z,-5.34
2022-12-17T00:07:17.004Z,-5.30
2022-12-17T00:08:16.510Z,-5.24
2022-12-17T00:09:17.019Z,-5.28
2022-12-17T00:10:16.516Z,-5.37
2022-12-17T00:11:17.020Z,-5.24
2022-12-17T00:12:16.395Z,-5.34
2022-12-17T00:13:16.882Z,-5.44
2022-12-17T00:14:16.383Z,-5.48
2022-12-17T00:15:16.897Z,-5.55
2022-12-17T00:16:16.587Z,-5.58
2022-12-17T00:17:17.120Z,-5.62
2022-12-17T00:18:16.592Z,-5.59
2022-12-17T00:19:17.077Z,-5.63
2022-12-17T00:20:16.561Z,-5.63
2022-12-17T00:21:17.037Z,-5.69
2022-12-17T00:22:16.695Z,-5.73
2022-12-17T00:23:17.172Z,-5.61
2022-12-17T00:24:16.649Z,-5.55
2022-12-17T00:25:17.150Z,-5.62
2022-12-17T00:26:16.631Z,-5.68
2022-12-17T00:27:17.124Z,-5.68
2022-12-17T00:28:16.612Z,-5.63
2022-12-17T00:29:17.120Z,-5.69
2022-12-17T00:30:16.598Z,-5.72
2022-12-17T00:31:17.133Z,-5.80
2022-12-17T00:32:17.005Z,-5.82
2022-12-17T00:33:16.512Z,-5.84
2022-12-17T00:34:16.986Z,-5.78
2022-12-17T00:35:16.463Z,-5.73
2022-12-17T00:36:16.995Z,-5.76
2022-12-17T00:37:16.520Z,-5.71
2022-12-17T00:38:16.986Z,-5.73
2022-12-17T00:39:16.485Z,-5.71
2022-12-17T00:40:16.966Z,-5.76
2022-12-17T00:41:16.432Z,-5.83
2022-12-17T00:42:16.900Z,-5.86
2022-12-17T00:43:16.349Z,-5.86
2022-12-17T00:44:16.839Z,-5.89
2022-12-17T00:45:16.320Z,-5.99
2022-12-17T00:46:16.883Z,-5.99
2022-12-17T00:47:16.552Z,-5.99
2022-12-17T00:48:17.067Z,-6.00
2022-12-17T00:49:16.551Z,-6.00
2022-12-17T00:50:17.053Z,-5.93
2022-12-17T00:51:16.546Z,-6.00
2022-12-17T00:52:16.355Z,-5.94
2022-12-17T00:53:16.878Z,-5.90
2022-12-17T00:54:16.341Z,-5.97
2022-12-17T00:55:16.810Z,-6.06
2022-12-17T00:56:17.296Z,-6.03
2022-12-17T00:57:16.832Z,-6.06
2022-12-17T00:58:16.314Z,-6.13
2022-12-17T00:59:16.794Z,-6.22
2022-12-17T01:00:17.325Z,-6.32
2022-12-17T01:01:16.920Z,-6.35
2022-12-17T01:02:17.169Z,-6.35
2022-12-17T01:03:16.997Z,-6.18
2022-12-17T01:04:16.556Z,-6.01
2022-12-17T01:05:17.050Z,-6.11
2022-12-17T01:06:16.542Z,-6.17
2022-12-17T01:07:17.007Z,-6.31
2022-12-17T01:08:16.493Z,-6.31
2022-12-17T01:09:16.968Z,-6.36
2022-12-17T01:10:16.464Z,-6.45
2022-12-17T01:11:16.961Z,-6.45
2022-12-17T01:12:16.633Z,-6.51
2022-12-17T01:13:17.119Z,-6.48
2022-12-17T01:14:16.580Z,-6.53
2022-12-17T01:15:17.115Z,-6.56
2022-12-17T01:16:16.615Z,-6.58
2022-12-17T01:17:17.220Z,-6.59
2022-12-17T01:18:16.731Z,-6.56
2022-12-17T01:19:17.288Z,-6.62
2022-12-17T01:20:16.774Z,-6.68
2022-12-17T01:21:17.268Z,-6.68
2022-12-17T01:22:16.607Z,-6.66
2022-12-17T01:23:17.082Z,-6.68
2022-12-17T01:24:16.591Z,-6.68
2022-12-17T01:25:17.137Z,-6.70
2022-12-17T01:26:16.613Z,-6.73
2022-12-17T01:27:17.105Z,-6.72
2022-12-17T01:28:16.610Z,-6.79
2022-12-17T01:29:17.071Z,-6.76
2022-12-17T01:30:16.543Z,-6.79
2022-12-17T01:31:17.087Z,-6.79
2022-12-17T01:32:16.672Z,-6.83
2022-12-17T01:33:17.141Z,-6.76
2022-12-17T01:34:16.630Z,-6.76
2022-12-17T01:35:17.093Z,-6.74
2022-12-17T01:36:16.584Z,-6.74
2022-12-17T01:37:17.046Z,-6.76
2022-12-17T01:38:16.573Z,-6.74
2022-12-17T01:39:17.079Z,-6.76
2022-12-17T01:40:16.607Z,-6.74
2022-12-17T01:41:17.109Z,-6.72
2022-12-17T01:42:16.484Z,-6.72
2022-12-17T01:43:16.955Z,-6.70
2022-12-17T01:44:16.455Z,-6.76
2022-12-17T01:45:16.938Z,-6.76
2022-12-17T01:46:16.465Z,-6.74
2022-12-17T01:47:17.097Z,-6.81
2022-12-17T01:48:16.564Z,-6.81
2022-12-17T01:49:17.047Z,-6.80
2022-12-17T01:50:16.498Z,-6.83
2022-12-17T01:51:16.968Z,-6.88
2022-12-17T01:52:16.873Z,-6.90
2022-12-17T01:53:16.411Z,-6.87
2022-12-17T01:54:16.887Z,-6.83
2022-12-17T01:55:16.366Z,-6.79
2022-12-17T01:56:16.889Z,-6.79
2022-12-17T01:57:16.392Z,-6.76
2022-12-17T01:58:16.877Z,-6.73
2022-12-17T01:59:16.376Z,-6.69
2022-12-17T02:00:16.900Z,-6.68
2022-12-17T02:01:16.447Z,-6.70
2022-12-17T02:02:16.915Z,-6.73
2022-12-17T02:03:16.767Z,-6.70
2022-12-17T02:04:16.321Z,-6.70
2022-12-17T02:05:16.767Z,-6.72
2022-12-17T02:06:17.257Z,-6.79
2022-12-17T02:07:16.838Z,-6.79
2022-12-17T02:08:16.393Z,-6.74
2022-12-17T02:09:16.953Z,-6.77
2022-12-17T02:10:16.435Z,-6.80
2022-12-17T02:11:16.911Z,-6.87
2022-12-17T02:12:16.531Z,-6.87
2022-12-17T02:13:17.023Z,-6.84
2022-12-17T02:14:16.521Z,-6.81
2022-12-17T02:15:17.009Z,-6.73
2022-12-17T02:16:16.517Z,-6.81
2022-12-17T02:17:17.070Z,-6.76
2022-12-17T02:18:16.633Z,-6.81
2022-12-17T02:19:17.226Z,-6.86
2022-12-17T02:20:16.719Z,-6.84
2022-12-17T02:21:17.225Z,-6.84
2022-12-17T02:22:16.971Z,-6.88
2022-12-17T02:23:16.461Z,-6.86
2022-12-17T02:24:17.001Z,-6.91
2022-12-17T02:25:16.486Z,-6.96
2022-12-17T02:26:16.974Z,-6.96
2022-12-17T02:27:16.462Z,-6.96
2022-12-17T02:32:17.051Z,-7.16
2022-12-17T02:33:16.557Z,-7.24
2022-12-17T02:34:17.078Z,-7.29
2022-12-17T02:35:16.557Z,-7.29
2022-12-17T02:36:17.026Z,-7.35
2022-12-17T02:37:16.486Z,-7.33
2022-12-17T02:38:16.996Z,-7.35
2022-12-17T02:39:16.480Z,-7.36
2022-12-17T02:40:16.991Z,-7.39
2022-12-17T02:41:16.485Z,-7.26
2022-12-17T02:42:17.110Z,-7.32
2022-12-17T02:43:16.631Z,-7.35
2022-12-17T02:44:17.175Z,-7.39
2022-12-17T02:45:16.703Z,-7.42
2022-12-17T02:46:17.240Z,-7.42
2022-12-17T02:47:16.830Z,-7.39
2022-12-17T02:48:16.312Z,-7.43
2022-12-17T02:49:16.789Z,-7.50
2022-12-17T02:50:17.253Z,-7.54
2022-12-17T02:51:16.746Z,-7.53
2022-12-17T02:52:17.275Z,-7.53
2022-12-17T02:53:16.744Z,-7.50
2022-12-17T02:54:16.291Z,-7.53
2022-12-17T02:55:16.808Z,-7.26
2022-12-17T02:56:17.281Z,-7.26
2022-12-17T02:57:16.800Z,-7.36
2022-12-17T02:58:17.269Z,-7.36
2022-12-17T02:59:16.768Z,-7.36
2022-12-17T03:04:16.369Z,-7.29
2022-12-17T03:05:43.213Z,-7.22
2022-12-17T03:06:16.359Z,-7.35
2022-12-17T03:07:16.838Z,-7.46
2022-12-17T03:08:16.338Z,-7.53
2022-12-17T03:09:16.830Z,-7.57
2022-12-17T03:10:16.316Z,-7.57
2022-12-17T03:11:16.785Z,-7.57
2022-12-17T03:12:16.481Z,-7.63
2022-12-17T03:13:17.027Z,-7.47
2022-12-17T03:14:16.628Z,-7.63
2022-12-17T03:15:16.374Z,-7.63
2022-12-17T03:16:16.917Z,-7.71
2022-12-17T03:17:16.522Z,-7.77
2022-12-17T03:18:17.013Z,-7.77
2022-12-17T03:19:16.544Z,-7.72
2022-12-17T03:20:17.035Z,-7.68
2022-12-17T03:21:16.532Z,-7.74
2022-12-17T03:22:16.382Z,-7.80
2022-12-17T03:23:16.888Z,-7.81
2022-12-17T03:24:16.395Z,-7.66
2022-12-17T03:25:16.898Z,-7.80
2022-12-17T03:26:16.400Z,-7.78
2022-12-17T03:27:16.870Z,-7.78
2022-12-17T03:28:16.349Z,-7.93
2022-12-17T03:29:16.859Z,-7.97
2022-12-17T03:30:16.372Z,-8.04
2022-12-17T03:31:16.908Z,-8.04
2022-12-17T03:32:17.120Z,-8.01
2022-12-17T03:33:16.612Z,-8.06
2022-12-17T03:34:17.138Z,-8.04
2022-12-17T03:35:16.615Z,-8.01
2022-12-17T03:36:17.093Z,-8.01
2022-12-17T03:37:16.564Z,-8.01
2022-12-17T03:38:17.047Z,-7.99
2022-12-17T03:39:16.668Z,-7.99
2022-12-17T03:40:17.138Z,-7.98
2022-12-17T03:41:16.601Z,-7.99
2022-12-17T03:42:16.767Z,-8.04
2022-12-17T03:43:17.257Z,-8.11
2022-12-17T03:44:16.834Z,-8.14
2022-12-17T03:45:16.337Z,-8.15
2022-12-17T03:46:16.916Z,-8.15
2022-12-17T03:47:16.547Z,-8.15
2022-12-17T03:48:17.048Z,-8.16
2022-12-17T03:49:16.520Z,-8.12
2022-12-17T03:50:16.982Z,-8.15
2022-12-17T03:51:16.453Z,-8.16
2022-12-17T03:52:17.176Z,-8.21
2022-12-17T03:53:16.661Z,-8.16
2022-12-17T03:54:17.130Z,-8.23
2022-12-17T03:55:16.623Z,-8.23
2022-12-17T03:56:17.142Z,-8.23
2022-12-17T03:57:16.665Z,-8.23
2022-12-17T03:58:17.173Z,-8.23
2022-12-17T03:59:16.672Z,-8.22
2022-12-17T04:00:17.161Z,-8.27
2022-12-17T04:01:16.736Z,-8.27
2022-12-17T04:02:17.346Z,-8.42
2022-12-17T04:03:17.246Z,-8.42
2022-12-17T04:04:16.908Z,-8.42
2022-12-17T04:05:20.057Z,-8.42
2022-12-17T04:06:17.075Z,-8.29
2022-12-17T04:07:16.560Z,-8.27
2022-12-17T04:08:17.070Z,-8.30
2022-12-17T04:09:16.538Z,-8.33
2022-12-17T04:10:17.017Z,-8.37
2022-12-17T04:11:16.536Z,-8.32
2022-12-17T04:12:16.931Z,-8.39
2022-12-17T04:13:16.423Z,-8.30
2022-12-17T04:14:16.889Z,-8.30
2022-12-17T04:15:16.413Z,-8.53
2022-12-17T04:16:16.946Z,-8.51
2022-12-17T04:17:16.562Z,-8.42
2022-12-17T04:18:17.035Z,-8.42
2022-12-17T04:19:16.515Z,-8.51
2022-12-17T04:20:17.008Z,-8.49
2022-12-17T04:21:16.510Z,-8.49
2022-12-17T04:22:17.046Z,-8.49
2022-12-17T04:23:16.504Z,-8.51
2022-12-17T04:24:16.983Z,-8.57
2022-12-17T04:25:16.468Z,-8.62
2022-12-17T04:26:16.941Z,-8.61
2022-12-17T04:27:16.430Z,-8.65
2022-12-17T04:28:16.957Z,-8.71
2022-12-17T04:29:16.448Z,-8.71
2022-12-17T04:30:16.932Z,-8.72
2022-12-17T04:31:16.488Z,-8.74
2022-12-17T04:32:16.754Z,-8.72
2022-12-17T04:33:17.244Z,-8.71
2022-12-17T04:34:16.737Z,-8.67
2022-12-17T04:35:17.269Z,-8.68
2022-12-17T04:36:16.737Z,-8.72
2022-12-17T04:37:17.266Z,-8.77
2022-12-17T04:38:16.759Z,-8.77
2022-12-17T04:39:17.297Z,-8.77
2022-12-17T04:42:16.812Z,-8.82
2022-12-17T04:43:17.280Z,-8.75
2022-12-17T04:44:16.761Z,-8.74
2022-12-17T04:45:17.245Z,-8.75
2022-12-17T04:46:16.792Z,-8.79
2022-12-17T04:47:16.476Z,-8.88
2022-12-17T04:48:16.954Z,-8.88
2022-12-17T04:49:16.425Z,-8.92
2022-12-17T04:50:16.907Z,-8.75
2022-12-17T04:51:16.397Z,-8.85
2022-12-17T04:52:17.081Z,-8.75
2022-12-17T04:53:16.597Z,-8.74
2022-12-17T04:54:17.094Z,-8.77
2022-12-17T04:55:16.601Z,-8.81
2022-12-17T04:56:17.084Z,-8.81
2022-12-17T04:57:16.563Z,-8.81
2022-12-17T05:00:17.228Z,-9.22
2022-12-17T05:01:16.808Z,-9.27
2022-12-17T05:02:17.160Z,-9.23
2022-12-17T05:03:16.788Z,-9.23
2022-12-17T05:04:16.399Z,-9.24
2022-12-17T05:05:16.912Z,-9.23
2022-12-17T05:06:16.405Z,-9.24
2022-12-17T05:07:16.882Z,-9.23
2022-12-17T05:08:16.366Z,-9.27
2022-12-17T05:09:16.826Z,-9.20
2022-12-17T05:10:16.301Z,-9.34
2022-12-17T05:11:16.772Z,-9.39
2022-12-17T05:12:16.408Z,-9.26
2022-12-17T05:13:16.876Z,-9.27
2022-12-17T05:14:16.355Z,-9.26
2022-12-17T05:15:16.837Z,-9.30
2022-12-17T05:16:16.353Z,-9.30
2022-12-17T05:17:16.963Z,-9.30
2022-12-17T05:18:16.493Z,-9.43
2022-12-17T05:19:16.957Z,-9.44
2022-12-17T05:20:16.419Z,-9.48
2022-12-17T05:21:16.901Z,-9.47
2022-12-17T05:22:16.342Z,-9.48
2022-12-17T05:23:16.850Z,-9.50
2022-12-17T05:24:16.363Z,-9.50
2022-12-17T05:25:16.874Z,-9.47
2022-12-17T05:26:16.380Z,-9.48
2022-12-17T05:27:16.863Z,-9.51
2022-12-17T05:28:16.384Z,-9.52
2022-12-17T05:29:16.887Z,-9.51
2022-12-17T05:30:16.411Z,-9.52
2022-12-17T05:31:16.967Z,-9.54
2022-12-17T05:32:17.235Z,-9.51
2022-12-17T05:33:16.749Z,-9.50
2022-12-17T05:34:17.241Z,-9.52
2022-12-17T05:35:16.745Z,-9.60
2022-12-17T05:36:17.229Z,-9.62
2022-12-17T05:37:16.714Z,-9.62
2022-12-17T05:38:17.191Z,-9.64
2022-12-17T05:39:16.717Z,-9.64
2022-12-17T05:40:17.200Z,-9.65
2022-12-17T05:41:16.685Z,-9.67
2022-12-17T05:42:16.617Z,-9.64
2022-12-17T05:43:17.133Z,-9.68
2022-12-17T05:44:16.640Z,-9.69
2022-12-17T05:45:17.133Z,-9.71
2022-12-17T05:46:16.707Z,-9.75
2022-12-17T05:47:16.305Z,-9.77
2022-12-17T05:48:16.810Z,-9.79
2022-12-17T05:49:17.280Z,-9.82
2022-12-17T05:50:16.771Z,-9.86
2022-12-17T05:51:17.268Z,-9.83
2022-12-17T05:52:16.778Z,-9.81
2022-12-17T05:53:17.269Z,-9.83
2022-12-17T05:54:16.755Z,-9.86
2022-12-17T05:55:17.244Z,-9.86
2022-12-17T05:56:16.733Z,-9.89
2022-12-17T05:57:17.221Z,-9.89
2022-12-17T05:58:16.696Z,-9.89
2022-12-17T05:59:17.201Z,-9.86
2022-12-17T06:00:16.720Z,-9.72
2022-12-17T06:01:17.252Z,-9.68
2022-12-17T06:02:16.833Z,-9.75
2022-12-17T06:03:16.516Z,-9.83
2022-12-17T06:04:17.246Z,-9.85
2022-12-17T06:05:16.837Z,-9.92
2022-12-17T06:06:16.313Z,-9.97
2022-12-17T06:07:16.775Z,-10.00
2022-12-17T06:08:17.248Z,-10.00
2022-12-17T06:09:16.749Z,-10.00
2022-12-17T06:10:17.260Z,-10.00
2022-12-17T06:11:16.729Z,-10.02
2022-12-17T06:12:16.356Z,-10.02
2022-12-17T06:13:16.845Z,-10.03
2022-12-17T06:14:16.331Z,-10.07
2022-12-17T06:15:16.819Z,-10.10
2022-12-17T06:16:16.321Z,-10.11
2022-12-17T06:17:16.836Z,-10.13
2022-12-17T06:18:17.034Z,-10.11
2022-12-17T06:19:16.917Z,-10.16
2022-12-17T06:20:16.421Z,-10.16
2022-12-17T06:21:16.884Z,-10.14
2022-12-17T06:22:16.359Z,-10.18
2022-12-17T06:23:16.849Z,-10.18
2022-12-17T06:24:16.383Z,-10.24
2022-12-17T06:25:16.867Z,-10.27
2022-12-17T06:26:16.369Z,-10.27
2022-12-17T06:27:16.872Z,-10.30
2022-12-17T06:28:16.383Z,-10.40
2022-12-17T06:29:16.863Z,-10.40
2022-12-17T06:30:18.758Z,-10.38
2022-12-17T06:31:16.703Z,-10.40
2022-12-17T06:32:16.812Z,-10.33
2022-12-17T06:33:17.316Z,-10.23
2022-12-17T06:34:16.788Z,-10.23
2022-12-17T06:35:17.267Z,-10.18
2022-12-17T06:36:21.909Z,-10.21
2022-12-17T06:37:16.440Z,-10.28
2022-12-17T06:38:16.925Z,-10.41
2022-12-17T06:39:16.439Z,-10.41
2022-12-17T06:40:16.948Z,-10.35
2022-12-17T06:41:16.461Z,-10.37
2022-12-17T06:42:16.593Z,-10.38
2022-12-17T06:43:17.067Z,-10.42
2022-12-17T06:44:16.547Z,-10.48
2022-12-17T06:45:17.021Z,-10.48
2022-12-17T06:46:16.536Z,-10.46
2022-12-17T06:47:17.043Z,-10.51
2022-12-17T06:48:16.539Z,-10.55
2022-12-17T06:49:17.019Z,-10.59
2022-12-17T06:50:16.516Z,-10.65
2022-12-17T06:51:17.025Z,-10.73
2022-12-17T06:52:16.803Z,-10.82
2022-12-17T06:53:17.260Z,-10.89
2022-12-17T06:54:16.742Z,-10.89
2022-12-17T06:55:17.220Z,-11.01
2022-12-17T06:56:16.688Z,-11.01
2022-12-17T06:57:17.176Z,-10.96
2022-12-17T06:58:16.659Z,-10.92
2022-12-17T06:59:17.190Z,-10.89
2022-12-17T07:00:16.665Z,-10.87
2022-12-17T07:01:17.203Z,-10.89
2022-12-17T07:02:16.467Z,-10.89
2022-12-17T07:03:17.213Z,-10.87
2022-12-17T07:04:16.793Z,-10.86
2022-12-17T07:05:17.295Z,-10.83
2022-12-17T07:06:16.790Z,-10.83
2022-12-17T07:07:17.293Z,-10.85
2022-12-17T07:08:16.802Z,-10.83
2022-12-17T07:09:17.266Z,-10.83
2022-12-17T07:10:16.748Z,-10.83
2022-12-17T07:11:17.235Z,-10.80
2022-12-17T07:12:16.809Z,-10.80
2022-12-17T07:13:16.473Z,-10.79
2022-12-17T07:14:16.964Z,-10.79
2022-12-17T07:15:16.476Z,-10.79
2022-12-17T07:16:17.041Z,-10.82
2022-12-17T07:17:16.596Z,-10.80
2022-12-17T07:18:17.082Z,-10.80
2022-12-17T07:19:16.532Z,-10.83
2022-12-17T07:20:17.028Z,-10.86
2022-12-17T07:21:16.492Z,-10.87
2022-12-17T07:22:17.120Z,-10.92
2022-12-17T07:23:16.620Z,-10.89
2022-12-17T07:24:17.104Z,-10.89
2022-12-17T07:25:16.592Z,-10.89
2022-12-17T07:26:17.081Z,-10.78
2022-12-17T07:27:16.551Z,-10.72
2022-12-17T07:28:17.012Z,-10.72
2022-12-17T07:29:16.478Z,-10.68
2022-12-17T07:30:16.925Z,-10.62
2022-12-17T07:31:16.442Z,-10.64
2022-12-17T07:32:16.757Z,-10.65
2022-12-17T07:33:17.261Z,-10.66
2022-12-17T07:34:16.766Z,-10.72
2022-12-17T07:35:17.255Z,-10.73
2022-12-17T07:36:16.761Z,-10.73
2022-12-17T07:37:20.421Z,-10.73
2022-12-17T07:38:17.243Z,-10.72
2022-12-17T07:39:16.746Z,-10.68
2022-12-17T07:40:17.216Z,-10.65
2022-12-17T07:41:16.686Z,-10.65
2022-12-17T07:42:16.452Z,-10.61
2022-12-17T07:43:16.962Z,-10.59
2022-12-17T07:44:16.457Z,-10.57
2022-12-17T07:45:16.939Z,-10.57
2022-12-17T07:46:16.538Z,-10.52
2022-12-17T07:47:17.199Z,-10.52
2022-12-17T07:48:16.725Z,-10.52
2022-12-17T07:49:19.210Z,-10.42
2022-12-17T07:50:16.979Z,-10.46
2022-12-17T07:51:16.464Z,-10.45
2022-12-17T07:52:16.769Z,-10.31
2022-12-17T07:53:17.284Z,-10.33
2022-12-17T07:54:16.763Z,-10.17
2022-12-17T07:55:18.423Z,-10.21
2022-12-17T07:56:16.997Z,-10.16
2022-12-17T07:57:16.537Z,-10.20
2022-12-17T07:58:17.027Z,-10.24
2022-12-17T07:59:16.512Z,-10.30
2022-12-17T08:00:17.006Z,-10.27
2022-12-17T08:01:16.634Z,-10.17
2022-12-17T08:02:17.158Z,-10.17
2022-12-17T08:03:17.111Z,-10.18
2022-12-17T08:04:16.638Z,-10.18
2022-12-17T08:05:17.117Z,-10.03
2022-12-17T08:06:16.618Z,-10.02
2022-12-17T08:07:17.099Z,-13.07
2022-12-17T08:08:16.617Z,-13.07
2022-12-17T08:09:17.093Z,-13.07
2022-12-17T08:10:16.585Z,-10.02
2022-12-17T08:11:17.057Z,-10.06
2022-12-17T08:12:16.476Z,-10.13
2022-12-17T08:13:16.956Z,-10.07
2022-12-17T08:14:16.445Z,-10.23
2022-12-17T08:15:16.926Z,-10.13
2022-12-17T08:16:16.474Z,-9.97
2022-12-17T08:17:17.103Z,-9.90
2022-12-17T08:18:20.225Z,-9.83
2022-12-17T08:19:17.008Z,-9.79
2022-12-17T08:20:16.480Z,-9.68
2022-12-17T08:21:16.965Z,-9.58
2022-12-17T08:22:17.152Z,-9.64
2022-12-17T08:23:16.618Z,-9.48
2022-12-17T08:24:17.151Z,-9.48
2022-12-17T08:25:16.724Z,-9.48
2022-12-17T08:26:17.200Z,-9.40
2022-12-17T08:27:16.694Z,-9.29
2022-12-17T08:28:41.474Z,-9.17
2022-12-17T08:29:16.683Z,-8.99
2022-12-17T08:30:17.160Z,-8.96
2022-12-17T08:31:16.696Z,-8.93
2022-12-17T08:32:16.289Z,-8.84
2022-12-17T08:33:16.772Z,-8.82
2022-12-17T08:34:17.263Z,-8.75
2022-12-17T08:35:16.779Z,-8.99
2022-12-17T08:36:17.261Z,-9.06
2022-12-17T08:37:16.759Z,-9.10
2022-12-17T08:38:17.238Z,-8.98
2022-12-17T08:39:16.729Z,-8.70
2022-12-17T08:40:17.221Z,-8.58
2022-12-17T08:41:16.689Z,-8.42
2022-12-17T08:42:17.128Z,-8.32
2022-12-17T08:43:16.585Z,-8.18
2022-12-17T08:44:17.071Z,-8.02
2022-12-17T08:45:16.539Z,-7.91
2022-12-17T08:46:17.126Z,-7.84
2022-12-17T08:47:16.783Z,-7.77
2022-12-17T08:48:17.263Z,-7.63
2022-12-17T08:49:16.775Z,-7.60
2022-12-17T08:50:17.315Z,-7.49
2022-12-17T08:51:16.843Z,-7.47
2022-12-17T08:52:16.319Z,-7.40
2022-12-17T08:53:16.823Z,-7.39
2022-12-17T08:54:17.293Z,-7.42
2022-12-17T08:55:16.771Z,-7.52
2022-12-17T08:56:17.289Z,-7.42
2022-12-17T08:57:30.556Z,-7.50
2022-12-17T08:58:17.187Z,-7.43
2022-12-17T08:59:16.637Z,-7.33
2022-12-17T09:00:17.105Z,-7.29
2022-12-17T09:01:16.686Z,-7.32
2022-12-17T09:02:17.152Z,-7.25
2022-12-17T09:03:16.917Z,-7.35
2022-12-17T09:04:16.478Z,-7.24
2022-12-17T09:05:16.976Z,-7.07
2022-12-17T09:06:16.484Z,-7.14
2022-12-17T09:07:16.991Z,-7.11
2022-12-17T09:08:16.492Z,-6.97
2022-12-17T09:09:16.968Z,-6.97
2022-12-17T09:10:16.438Z,-7.11
2022-12-17T09:11:16.910Z,-6.90
2022-12-17T09:12:16.537Z,-6.81
2022-12-17T09:13:17.044Z,-6.74
2022-12-17T09:14:16.566Z,-6.69
2022-12-17T09:15:17.046Z,-6.86
2022-12-17T09:16:16.614Z,-7.04
2022-12-17T09:17:17.269Z,-6.79
2022-12-17T09:18:16.757Z,-6.53
2022-12-17T09:19:17.234Z,-6.39
2022-12-17T09:20:16.721Z,-6.29
2022-12-17T09:21:17.184Z,-6.36
2022-12-17T09:22:16.377Z,-6.49
2022-12-17T09:23:16.890Z,-6.61
2022-12-17T09:24:16.353Z,-6.69
2022-12-17T09:25:16.824Z,-6.73
2022-12-17T09:26:17.313Z,-6.93
2022-12-17T09:27:16.837Z,-6.94
2022-12-17T09:28:16.316Z,-6.77
2022-12-17T09:29:16.838Z,-6.55
2022-12-17T09:30:16.328Z,-6.32
2022-12-17T09:31:16.873Z,-6.21
2022-12-17T09:32:17.199Z,-6.17
2022-12-17T09:33:16.666Z,-6.14
2022-12-17T09:34:17.166Z,-6.24
2022-12-17T09:35:16.633Z,-6.38
2022-12-17T09:36:17.109Z,-6.39
2022-12-17T09:37:16.580Z,-6.28
2022-12-17T09:38:17.079Z,-6.31
2022-12-17T09:39:16.564Z,-6.14
2022-12-17T09:40:17.079Z,-6.01
2022-12-17T09:41:16.573Z,-5.89
2022-12-17T09:42:17.224Z,-5.75
2022-12-17T09:43:16.702Z,-5.84
2022-12-17T09:44:17.207Z,-5.93
2022-12-17T09:45:16.691Z,-5.94
2022-12-17T09:46:17.196Z,-5.94
2022-12-17T09:47:16.764Z,-5.82
2022-12-17T09:48:17.240Z,-5.86
2022-12-17T09:49:16.714Z,-6.17
2022-12-17T09:50:17.262Z,-6.15
2022-12-17T09:51:16.752Z,-6.15
2022-12-17T09:52:17.052Z,-6.18
2022-12-17T09:53:16.560Z,-6.18
2022-12-17T09:54:17.048Z,-6.18
2022-12-17T09:55:16.549Z,-5.71
2022-12-17T09:56:17.011Z,-5.63
2022-12-17T09:57:16.484Z,-5.50
2022-12-17T09:58:16.990Z,-5.61
2022-12-17T09:59:16.469Z,-5.69
2022-12-17T10:00:16.932Z,-5.66
2022-12-17T10:01:16.490Z,-5.63
2022-12-17T10:02:17.155Z,-5.63
2022-12-17T10:03:17.285Z,-5.63
2022-12-17T10:04:16.936Z,-5.65
2022-12-17T10:05:16.401Z,-5.75
2022-12-17T10:06:20.815Z,-5.65
2022-12-17T10:07:17.254Z,-5.65
2022-12-17T10:08:16.733Z,-5.41
2022-12-17T10:09:17.230Z,-5.37
2022-12-17T10:10:16.720Z,-5.28
2022-12-17T10:11:17.198Z,-5.21
2022-12-17T10:12:16.535Z,-5.17
2022-12-17T10:13:16.990Z,-5.17
2022-12-17T10:14:16.458Z,-5.23
2022-12-17T10:15:16.933Z,-5.37
2022-12-17T10:16:16.512Z,-5.38
2022-12-17T10:17:17.243Z,-5.23
2022-12-17T10:18:16.733Z,-5.26
2022-12-17T10:19:17.227Z,-5.13
2022-12-17T10:20:16.700Z,-5.05
2022-12-17T10:21:16.357Z,-5.17
2022-12-17T10:22:16.758Z,-5.33
2022-12-17T10:23:17.250Z,-5.13
2022-12-17T10:24:18.610Z,-4.97
2022-12-17T10:25:17.259Z,-4.96
2022-12-17T10:26:16.743Z,-4.95
2022-12-17T10:27:17.214Z,-4.89
2022-12-17T10:28:16.676Z,-5.01
2022-12-17T10:29:17.150Z,-5.12
2022-12-17T10:30:16.693Z,-5.10
2022-12-17T10:31:17.341Z,-5.12
2022-12-17T10:32:16.677Z,-5.05
2022-12-17T10:33:17.173Z,-5.05
2022-12-17T10:34:16.653Z,-5.05
2022-12-17T10:35:17.153Z,-4.93
2022-12-17T10:36:16.638Z,-4.93
2022-12-17T10:37:17.116Z,-4.99
2022-12-17T10:38:16.588Z,-4.99
2022-12-17T10:39:17.073Z,-4.96
2022-12-17T10:40:16.602Z,-4.88
2022-12-17T10:41:17.292Z,-4.90
2022-12-17T10:42:16.473Z,-4.85
2022-12-17T10:43:16.972Z,-4.73
2022-12-17T10:44:16.470Z,-4.60
2022-12-17T10:45:16.948Z,-4.53
2022-12-17T10:46:16.490Z,-4.53
2022-12-17T10:47:17.145Z,-4.53
2022-12-17T10:48:16.620Z,-4.60
2022-12-17T10:49:17.119Z,-4.65
2022-12-17T10:50:16.587Z,-4.71
2022-12-17T10:51:17.117Z,-4.60
2022-12-17T10:52:16.599Z,-4.62
2022-12-17T10:53:17.107Z,-4.81
2022-12-17T10:54:16.627Z,-4.76
2022-12-17T10:55:17.127Z,-4.64
2022-12-17T10:56:16.579Z,-4.47
2022-12-17T10:57:17.085Z,-4.38
2022-12-17T10:58:16.550Z,-4.26
2022-12-17T10:59:17.061Z,-4.27
2022-12-17T11:00:16.541Z,-4.38
2022-12-17T11:01:17.147Z,-4.47
2022-12-17T11:02:16.639Z,-4.51
2022-12-17T11:03:16.569Z,-4.51
2022-12-17T11:04:17.189Z,-4.50
2022-12-17T11:05:16.672Z,-4.45
2022-12-17T11:06:17.180Z,-4.48
2022-12-17T11:07:16.673Z,-4.45
2022-12-17T11:08:17.175Z,-4.40
2022-12-17T11:09:16.698Z,-4.45
2022-12-17T11:10:17.191Z,-4.43
2022-12-17T11:11:16.679Z,-4.45
2022-12-17T11:12:16.691Z,-4.29
2022-12-17T11:13:17.179Z,-4.33
2022-12-17T11:14:16.682Z,-4.33
2022-12-17T11:15:17.145Z,-4.31
2022-12-17T11:16:16.738Z,-4.38
2022-12-17T11:17:16.427Z,-4.44
2022-12-17T11:18:16.942Z,-4.40
2022-12-17T11:19:16.424Z,-4.16
2022-12-17T11:20:16.915Z,-3.91
2022-12-17T11:21:16.420Z,-3.67
2022-12-17T11:22:16.809Z,-3.51
2022-12-17T11:23:17.287Z,-3.39
2022-12-17T11:24:22.156Z,-3.48
2022-12-17T11:25:16.516Z,-3.35
2022-12-17T11:26:16.989Z,-3.15
2022-12-17T11:27:16.457Z,-2.85
2022-12-17T11:28:16.956Z,-2.76
2022-12-17T11:29:16.446Z,-2.67
2022-12-17T11:30:16.940Z,-2.63
2022-12-17T11:31:16.517Z,-2.43
2022-12-17T11:32:17.111Z,-2.23
2022-12-17T11:33:16.597Z,-2.25
2022-12-17T11:34:17.114Z,-2.01
2022-12-17T11:35:16.576Z,-1.90
2022-12-17T11:36:17.049Z,-1.95
2022-12-17T11:37:16.525Z,-2.09
2022-12-17T11:38:17.019Z,-1.98
2022-12-17T11:39:16.514Z,-1.84
2022-12-17T11:40:17.052Z,-1.97
2022-12-17T11:41:16.603Z,-1.77
2022-12-17T11:42:16.933Z,-1.52
2022-12-17T11:43:16.410Z,-1.56
2022-12-17T11:44:16.921Z,-1.13
2022-12-17T11:45:16.392Z,-0.93
2022-12-17T11:46:16.932Z,-1.08
2022-12-17T11:47:16.546Z,-0.96
2022-12-17T11:48:17.027Z,-0.65
2022-12-17T11:49:16.540Z,-0.69
2022-12-17T11:50:17.015Z,-0.61
2022-12-17T11:51:16.488Z,-0.69
2022-12-17T11:52:17.061Z,-0.90
2022-12-17T11:53:16.563Z,-0.90
2022-12-17T11:54:17.067Z,-0.61
2022-12-17T11:55:16.554Z,-0.16
2022-12-17T11:56:17.055Z,-0.66
2022-12-17T11:57:16.561Z,-1.29
2022-12-17T11:58:17.049Z,-2.01
2022-12-17T11:59:16.554Z,-2.26
2022-12-17T12:00:17.022Z,-2.41
2022-12-17T12:01:16.517Z,-2.42
2022-12-17T12:02:17.046Z,-2.21
2022-12-17T12:03:16.667Z,-2.17
2022-12-17T12:04:16.478Z,-2.17
2022-12-17T12:05:17.123Z,-2.25
2022-12-17T12:06:16.615Z,-2.17
2022-12-17T12:07:17.120Z,-2.08
2022-12-17T12:08:16.617Z,-2.08
2022-12-17T12:09:17.129Z,-2.18
2022-12-17T12:10:16.670Z,-2.42
2022-12-17T12:11:17.153Z,-2.81
2022-12-17T12:12:16.616Z,-2.84
2022-12-17T12:13:17.066Z,-2.91
2022-12-17T12:14:16.569Z,-2.91
2022-12-17T12:15:17.076Z,-2.94
2022-12-17T12:16:16.667Z,-2.82
2022-12-17T12:17:17.212Z,-2.73
2022-12-17T12:18:16.721Z,-2.60
2022-12-17T12:19:17.196Z,-2.54
2022-12-17T12:20:16.705Z,-2.59
2022-12-17T12:21:17.207Z,-2.62
2022-12-17T12:22:16.376Z,-2.66
2022-12-17T12:23:16.872Z,-2.67
2022-12-17T12:24:16.353Z,-2.76
2022-12-17T12:25:16.833Z,-2.91
2022-12-17T12:26:17.305Z,-2.90
2022-12-17T12:27:16.771Z,-2.76
2022-12-17T12:28:17.281Z,-2.66
2022-12-17T12:29:16.756Z,-2.66
2022-12-17T12:30:17.312Z,-2.71
2022-12-17T12:31:16.840Z,-2.71
2022-12-17T12:32:16.711Z,-2.71
2022-12-17T12:33:17.208Z,-2.88
2022-12-17T12:34:16.696Z,-2.88
2022-12-17T12:35:17.206Z,-2.92
2022-12-17T12:36:16.659Z,-2.90
2022-12-17T12:37:17.170Z,-2.94
2022-12-17T12:38:16.657Z,-2.87
2022-12-17T12:39:17.153Z,-2.87
2022-12-17T12:40:16.673Z,-2.87
2022-12-17T12:41:17.151Z,-2.90
2022-12-17T12:42:16.599Z,-2.87
2022-12-17T12:43:16.464Z,-2.92
2022-12-17T12:44:16.949Z,-2.88
2022-12-17T12:45:16.442Z,-2.90
2022-12-17T12:46:17.050Z,-3.04
2022-12-17T12:47:16.750Z,-2.97
2022-12-17T12:48:17.240Z,-2.95
2022-12-17T12:49:16.731Z,-2.91
2022-12-17T12:50:17.282Z,-2.92
2022-12-17T12:51:16.766Z,-3.07
2022-12-17T12:52:17.070Z,-3.02
2022-12-17T12:53:16.551Z,-2.97
2022-12-17T12:54:17.162Z,-2.92
2022-12-17T12:55:16.619Z,-2.95
2022-12-17T12:56:17.104Z,-2.95
2022-12-17T12:57:16.620Z,-3.18
2022-12-17T12:58:17.107Z,-3.22
2022-12-17T12:59:16.625Z,-3.29
2022-12-17T13:00:17.095Z,-3.32